sensor_id;sensor_type;location;lat;lon;timestamp;P1;durP1;ratioP1;P2;durP2;ratioP2
8698;SDS011;4386;51.236;6.742;2022-12-20T13:16:44;3.83;;;3.17;;
8698;SDS011;4386;51.236;6.742;2022-12-20T13:18:16;5.63;;;3.55;;
8698;SDS011;4386;51.236;6.742;2022-12-20T13:19:34;3.95;;;2.83;;
8698;SDS011;4386;51.236;6.742;2022-12-20T13:20:37;9.40;;;4.35;;
8698;SDS011;4386;51.236;6.742;2022-12-20T13:21:40;5.57;;;3.70;;
8698;SDS011;4386;51.236;6.742;2022-12-20T13:25:38;5.05;;;3.15;;
8698;SDS011;4386;51.236;6.742;2022-12-20T13:26:48;6.30;;;4.68;;
8698;SDS011;4386;51.236;6.742;2022-12-20T13:27:53;9.10;;;4.15;;
8698;SDS011;4386;51.236;6.742;2022-12-20T13:29:22;5.68;;;4.10;;
8698;SDS011;4386;51.236;6.742;2022-12-20T13:30:26;8.52;;;3.35;;
8698;SDS011;4386;51.236;6.742;2022-12-20T13:31:30;5.53;;;3.60;;
8698;SDS011;4386;51.236;6.742;2022-12-20T13:34:39;4.30;;;3.60;;
8698;SDS011;4386;51.236;6.742;2022-12-20T13:36:00;5.57;;;3.78;;
8698;SDS011;4386;51.236;6.742;2022-12-20T13:38:38;9.02;;;4.82;;
8698;SDS011;4386;51.236;6.742;2022-12-20T13:39:56;14.40;;;4.15;;
8698;SDS011;4386;51.236;6.742;2022-12-20T13:41:03;5.85;;;3.75;;
8698;SDS011;4386;51.236;6.742;2022-12-20T13:42:15;5.22;;;3.58;;
8698;SDS011;4386;51.236;6.742;2022-12-20T13:43:25;6.28;;;3.33;;
8698;SDS011;4386;51.236;6.742;2022-12-20T13:44:32;5.57;;;3.50;;
8698;SDS011;4386;51.236;6.742;2022-12-20T13:45:37;6.53;;;3.42;;
8698;SDS011;4386;51.236;6.742;2022-12-20T13:46:46;4.70;;;3.63;;
8698;SDS011;4386;51.236;6.742;2022-12-20T13:47:51;5.97;;;3.95;;
8698;SDS011;4386;51.236;6.742;2022-12-20T13:48:58;6.10;;;3.80;;
8698;SDS011;4386;51.236;6.742;2022-12-20T13:51:38;7.63;;;4.13;;
8698;SDS011;4386;51.236;6.742;2022-12-20T13:52:40;6.75;;;3.58;;
8698;SDS011;4386;51.236;6.742;2022-12-20T13:53:50;5.95;;;3.92;;
8698;SDS011;4386;51.236;6.742;2022-12-20T13:54:55;7.10;;;3.90;;
8698;SDS011;4386;51.236;6.742;2022-12-20T13:57:38;8.55;;;4.30;;
8698;SDS011;4386;51.236;6.742;2022-12-20T13:58:47;6.72;;;4.80;;
8698;SDS011;4386;51.236;6.742;2022-12-20T14:00:01;5.78;;;3.95;;
8698;SDS011;4386;51.236;6.742;2022-12-20T14:01:14;8.98;;;4.20;;
8698;SDS011;4386;51.236;6.742;2022-12-20T14:02:26;8.27;;;3.88;;
8698;SDS011;4386;51.236;6.742;2022-12-20T14:03:33;10.57;;;3.95;;
8698;SDS011;4386;51.236;6.742;2022-12-20T14:04:43;9.02;;;4.38;;
8698;SDS011;4386;51.236;6.742;2022-12-20T14:05:54;8.20;;;3.95;;
8698;SDS011;4386;51.236;6.742;2022-12-20T14:07:07;10.23;;;4.70;;
8698;SDS011;4386;51.236;6.742;2022-12-20T14:08:15;8.73;;;4.85;;
8698;SDS011;4386;51.236;6.742;2022-12-20T14:09:28;8.52;;;4.85;;
8698;SDS011;4386;51.236;6.742;2022-12-20T14:10:33;9.95;;;4.30;;
8698;SDS011;4386;51.236;6.742;2022-12-20T14:11:38;10.20;;;5.45;;
8698;SDS011;4386;51.236;6.742;2022-12-20T14:12:48;10.52;;;5.32;;
8698;SDS011;4386;51.236;6.742;2022-12-20T14:13:54;11.80;;;5.90;;
8698;SDS011;4386;51.236;6.742;2022-12-20T14:14:58;7.60;;;5.97;;
8698;SDS011;4386;51.236;6.742;2022-12-20T14:16:05;12.95;;;6.82;;
8698;SDS011;4386;51.236;6.742;2022-12-20T14:17:16;16.17;;;6.43;;
8698;SDS011;4386;51.236;6.742;2022-12-20T14:18:24;10.07;;;5.72;;
8698;SDS011;4386;51.236;6.742;2022-12-20T14:19:27;8.98;;;5.50;;
8698;SDS011;4386;51.236;6.742;2022-12-20T14:20:30;6.03;;;4.53;;
8698;SDS011;4386;51.236;6.742;2022-12-20T14:21:37;9.75;;;5.72;;
8698;SDS011;4386;51.236;6.742;2022-12-20T14:22:54;12.07;;;5.75;;
8698;SDS011;4386;51.236;6.742;2022-12-20T14:24:16;14.05;;;6.53;;
8698;SDS011;4386;51.236;6.742;2022-12-20T14:25:30;12.07;;;6.13;;
8698;SDS011;4386;51.236;6.742;2022-12-20T14:26:37;7.07;;;5.97;;
8698;SDS011;4386;51.236;6.742;2022-12-20T14:27:45;12.55;;;5.03;;
8698;SDS011;4386;51.236;6.742;2022-12-20T14:28:49;16.08;;;5.90;;
8698;SDS011;4386;51.236;6.742;2022-12-20T14:29:53;9.63;;;6.15;;
8698;SDS011;4386;51.236;6.742;2022-12-20T14:30:55;10.05;;;6.18;;
8698;SDS011;4386;51.236;6.742;2022-12-20T14:32:01;9.20;;;5.60;;
8698;SDS011;4386;51.236;6.742;2022-12-20T14:33:04;17.05;;;6.57;;
8698;SDS011;4386;51.236;6.742;2022-12-20T14:34:10;13.30;;;5.70;;
8698;SDS011;4386;51.236;6.742;2022-12-20T14:35:17;12.38;;;5.97;;
8698;SDS011;4386;51.236;6.742;2022-12-20T14:36:25;8.02;;;5.80;;
8698;SDS011;4386;51.236;6.742;2022-12-20T14:37:33;8.40;;;5.53;;
8698;SDS011;4386;51.236;6.742;2022-12-20T14:38:38;11.18;;;6.38;;
8698;SDS011;4386;51.236;6.742;2022-12-20T14:39:52;10.40;;;5.70;;
8698;SDS011;4386;51.236;6.742;2022-12-20T14:40:57;10.10;;;5.00;;
8698;SDS011;4386;51.236;6.742;2022-12-20T14:42:00;9.48;;;5.60;;
8698;SDS011;4386;51.236;6.742;2022-12-20T14:43:12;12.25;;;6.95;;
8698;SDS011;4386;51.236;6.742;2022-12-20T14:44:19;8.20;;;5.88;;
8698;SDS011;4386;51.236;6.742;2022-12-20T14:45:34;11.55;;;5.57;;
8698;SDS011;4386;51.236;6.742;2022-12-20T14:46:47;10.23;;;5.82;;
8698;SDS011;4386;51.236;6.742;2022-12-20T14:48:02;11.60;;;5.80;;
8698;SDS011;4386;51.236;6.742;2022-12-20T14:49:14;8.65;;;5.88;;
8698;SDS011;4386;51.236;6.742;2022-12-20T14:50:23;15.95;;;5.20;;
8698;SDS011;4386;51.236;6.742;2022-12-20T14:51:29;9.10;;;5.70;;
8698;SDS011;4386;51.236;6.742;2022-12-20T14:52:34;14.40;;;6.43;;
8698;SDS011;4386;51.236;6.742;2022-12-20T14:53:39;10.48;;;6.15;;
8698;SDS011;4386;51.236;6.742;2022-12-20T14:54:58;6.90;;;5.25;;
8698;SDS011;4386;51.236;6.742;2022-12-20T14:56:12;14.90;;;5.80;;
8698;SDS011;4386;51.236;6.742;2022-12-20T14:57:20;10.43;;;7.15;;
8698;SDS011;4386;51.236;6.742;2022-12-20T14:58:25;12.55;;;5.80;;
8698;SDS011;4386;51.236;6.742;2022-12-20T14:59:29;9.13;;;6.05;;
8698;SDS011;4386;51.236;6.742;2022-12-20T15:00:32;11.77;;;6.20;;
8698;SDS011;4386;51.236;6.742;2022-12-20T15:01:38;9.60;;;5.47;;
8698;SDS011;4386;51.236;6.742;2022-12-20T15:02:47;8.35;;;6.07;;
8698;SDS011;4386;51.236;6.742;2022-12-20T15:03:53;9.38;;;6.20;;
8698;SDS011;4386;51.236;6.742;2022-12-20T15:04:57;8.95;;;6.38;;
8698;SDS011;4386;51.236;6.742;2022-12-20T15:05:59;15.00;;;6.75;;
8698;SDS011;4386;51.236;6.742;2022-12-20T15:07:27;9.45;;;6.35;;
8698;SDS011;4386;51.236;6.742;2022-12-20T15:08:33;12.20;;;6.60;;
8698;SDS011;4386;51.236;6.742;2022-12-20T15:09:40;16.70;;;6.93;;
8698;SDS011;4386;51.236;6.742;2022-12-20T15:10:58;15.32;;;6.45;;
8698;SDS011;4386;51.236;6.742;2022-12-20T15:12:03;11.18;;;7.07;;
8698;SDS011;4386;51.236;6.742;2022-12-20T15:13:06;9.00;;;6.78;;
8698;SDS011;4386;51.236;6.742;2022-12-20T15:14:25;13.88;;;6.55;;
8698;SDS011;4386;51.236;6.742;2022-12-20T15:15:45;23.08;;;6.57;;
8698;SDS011;4386;51.236;6.742;2022-12-20T15:16:48;12.32;;;6.38;;
8698;SDS011;4386;51.236;6.742;2022-12-20T15:17:49;18.15;;;6.88;;
8698;SDS011;4386;51.236;6.742;2022-12-20T15:18:52;9.02;;;6.50;;
8698;SDS011;4386;51.236;6.742;2022-12-20T15:19:58;14.15;;;6.20;;
8698;SDS011;4386;51.236;6.742;2022-12-20T15:21:02;8.85;;;6.25;;
8698;SDS011;4386;51.236;6.742;2022-12-20T15:22:10;10.07;;;6.20;;
8698;SDS011;4386;51.236;6.742;2022-12-20T15:23:18;15.63;;;6.30;;
8698;SDS011;4386;51.236;6.742;2022-12-20T15:24:25;11.32;;;6.10;;
8698;SDS011;4386;51.236;6.742;2022-12-20T15:25:30;24.27;;;7.65;;
8698;SDS011;4386;51.236;6.742;2022-12-20T15:26:44;8.07;;;5.80;;
8698;SDS011;4386;51.236;6.742;2022-12-20T15:27:48;13.23;;;6.55;;
8698;SDS011;4386;51.236;6.742;2022-12-20T15:28:50;9.90;;;7.13;;
8698;SDS011;4386;51.236;6.742;2022-12-20T15:29:53;10.38;;;6.22;;
8698;SDS011;4386;51.236;6.742;2022-12-20T15:30:56;13.23;;;8.30;;
8698;SDS011;4386;51.236;6.742;2022-12-20T15:31:59;14.60;;;6.85;;
8698;SDS011;4386;51.236;6.742;2022-12-20T15:33:07;10.07;;;6.60;;
8698;SDS011;4386;51.236;6.742;2022-12-20T15:34:17;9.63;;;5.80;;
8698;SDS011;4386;51.236;6.742;2022-12-20T15:35:25;12.88;;;6.55;;
8698;SDS011;4386;51.236;6.742;2022-12-20T15:36:28;8.63;;;5.95;;
8698;SDS011;4386;51.236;6.742;2022-12-20T15:37:34;10.93;;;6.85;;
8698;SDS011;4386;51.236;6.742;2022-12-20T15:38:36;13.70;;;6.22;;
8698;SDS011;4386;51.236;6.742;2022-12-20T15:40:01;15.73;;;7.15;;
8698;SDS011;4386;51.236;6.742;2022-12-20T15:41:03;17.45;;;6.13;;
8698;SDS011;4386;51.236;6.742;2022-12-20T15:42:09;8.82;;;5.38;;
8698;SDS011;4386;51.236;6.742;2022-12-20T15:43:16;11.50;;;6.50;;
8698;SDS011;4386;51.236;6.742;2022-12-20T15:44:20;8.70;;;6.10;;
8698;SDS011;4386;51.236;6.742;2022-12-20T15:45:25;11.20;;;5.50;;
8698;SDS011;4386;51.236;6.742;2022-12-20T15:46:27;11.32;;;6.28;;
8698;SDS011;4386;51.236;6.742;2022-12-20T15:47:30;8.70;;;6.18;;
8698;SDS011;4386;51.236;6.742;2022-12-20T15:48:35;11.43;;;7.28;;
8698;SDS011;4386;51.236;6.742;2022-12-20T15:49:38;7.78;;;5.90;;
8698;SDS011;4386;51.236;6.742;2022-12-20T15:50:51;7.15;;;5.63;;
8698;SDS011;4386;51.236;6.742;2022-12-20T15:51:56;8.20;;;5.55;;
8698;SDS011;4386;51.236;6.742;2022-12-20T15:52:59;10.50;;;7.18;;
8698;SDS011;4386;51.236;6.742;2022-12-20T15:54:14;9.90;;;5.38;;
8698;SDS011;4386;51.236;6.742;2022-12-20T15:55:25;15.38;;;6.15;;
8698;SDS011;4386;51.236;6.742;2022-12-20T15:56:29;9.02;;;5.85;;
8698;SDS011;4386;51.236;6.742;2022-12-20T15:57:30;10.80;;;5.15;;
8698;SDS011;4386;51.236;6.742;2022-12-20T15:58:33;8.07;;;5.55;;
8698;SDS011;4386;51.236;6.742;2022-12-20T15:59:43;9.75;;;5.20;;
8698;SDS011;4386;51.236;6.742;2022-12-20T16:01:11;10.00;;;5.28;;
8698;SDS011;4386;51.236;6.742;2022-12-20T16:02:28;13.70;;;5.95;;
8698;SDS011;4386;51.236;6.742;2022-12-20T16:03:32;5.90;;;5.18;;
8698;SDS011;4386;51.236;6.742;2022-12-20T16:04:34;8.50;;;5.53;;
8698;SDS011;4386;51.236;6.742;2022-12-20T16:05:37;6.82;;;5.22;;
8698;SDS011;4386;51.236;6.742;2022-12-20T16:06:38;11.10;;;5.60;;
8698;SDS011;4386;51.236;6.742;2022-12-20T16:07:41;8.00;;;5.38;;
8698;SDS011;4386;51.236;6.742;2022-12-20T16:08:44;10.15;;;5.40;;
8698;SDS011;4386;51.236;6.742;2022-12-20T16:09:46;9.52;;;5.47;;
8698;SDS011;4386;51.236;6.742;2022-12-20T16:10:50;10.13;;;5.68;;
8698;SDS011;4386;51.236;6.742;2022-12-20T16:11:53;13.25;;;6.22;;
8698;SDS011;4386;51.236;6.742;2022-12-20T16:12:55;9.98;;;6.10;;
8698;SDS011;4386;51.236;6.742;2022-12-20T16:13:58;7.88;;;6.45;;
8698;SDS011;4386;51.236;6.742;2022-12-20T16:15:01;11.15;;;6.43;;
8698;SDS011;4386;51.236;6.742;2022-12-20T16:16:03;6.38;;;5.10;;
8698;SDS011;4386;51.236;6.742;2022-12-20T16:17:08;10.18;;;5.97;;
8698;SDS011;4386;51.236;6.742;2022-12-20T16:18:13;12.93;;;6.22;;
8698;SDS011;4386;51.236;6.742;2022-12-20T16:19:15;11.23;;;6.57;;
8698;SDS011;4386;51.236;6.742;2022-12-20T16:20:19;12.68;;;5.72;;
8698;SDS011;4386;51.236;6.742;2022-12-20T16:21:22;10.38;;;5.97;;
8698;SDS011;4386;51.236;6.742;2022-12-20T16:22:27;8.18;;;5.63;;
8698;SDS011;4386;51.236;6.742;2022-12-20T16:23:31;11.45;;;6.00;;
8698;SDS011;4386;51.236;6.742;2022-12-20T16:24:33;14.05;;;6.13;;
8698;SDS011;4386;51.236;6.742;2022-12-20T16:25:42;10.80;;;5.07;;
8698;SDS011;4386;51.236;6.742;2022-12-20T16:26:48;6.15;;;5.07;;
8698;SDS011;4386;51.236;6.742;2022-12-20T16:27:52;10.57;;;5.85;;
8698;SDS011;4386;51.236;6.742;2022-12-20T16:28:56;7.25;;;5.40;;
8698;SDS011;4386;51.236;6.742;2022-12-20T16:30:00;8.15;;;5.50;;
8698;SDS011;4386;51.236;6.742;2022-12-20T16:31:08;9.93;;;5.28;;
8698;SDS011;4386;51.236;6.742;2022-12-20T16:32:12;9.10;;;5.70;;
8698;SDS011;4386;51.236;6.742;2022-12-20T16:33:16;8.90;;;7.10;;
8698;SDS011;4386;51.236;6.742;2022-12-20T16:34:21;10.98;;;5.22;;
8698;SDS011;4386;51.236;6.742;2022-12-20T16:35:25;13.07;;;7.35;;
8698;SDS011;4386;51.236;6.742;2022-12-20T16:36:28;12.68;;;6.75;;
8698;SDS011;4386;51.236;6.742;2022-12-20T16:37:31;11.50;;;6.55;;
8698;SDS011;4386;51.236;6.742;2022-12-20T16:38:39;10.48;;;5.93;;
8698;SDS011;4386;51.236;6.742;2022-12-20T16:39:42;10.02;;;5.72;;
8698;SDS011;4386;51.236;6.742;2022-12-20T16:40:43;10.93;;;6.15;;
8698;SDS011;4386;51.236;6.742;2022-12-20T16:41:47;10.07;;;5.90;;
8698;SDS011;4386;51.236;6.742;2022-12-20T16:42:49;8.02;;;5.85;;
8698;SDS011;4386;51.236;6.742;2022-12-20T16:43:52;9.18;;;6.70;;
8698;SDS011;4386;51.236;6.742;2022-12-20T16:44:55;12.27;;;6.35;;
8698;SDS011;4386;51.236;6.742;2022-12-20T16:45:57;11.15;;;5.75;;
8698;SDS011;4386;51.236;6.742;2022-12-20T16:46:59;8.52;;;6.35;;
8698;SDS011;4386;51.236;6.742;2022-12-20T16:48:01;8.95;;;6.03;;
8698;SDS011;4386;51.236;6.742;2022-12-20T16:49:04;8.93;;;5.40;;
8698;SDS011;4386;51.236;6.742;2022-12-20T16:50:06;12.38;;;5.70;;
8698;SDS011;4386;51.236;6.742;2022-12-20T16:51:14;10.73;;;5.65;;
8698;SDS011;4386;51.236;6.742;2022-12-20T16:52:24;7.93;;;5.55;;
8698;SDS011;4386;51.236;6.742;2022-12-20T16:53:27;11.43;;;6.13;;
8698;SDS011;4386;51.236;6.742;2022-12-20T16:54:58;10.23;;;6.00;;
8698;SDS011;4386;51.236;6.742;2022-12-20T16:56:02;8.38;;;6.35;;
8698;SDS011;4386;51.236;6.742;2022-12-20T16:57:16;13.20;;;6.20;;
8698;SDS011;4386;51.236;6.742;2022-12-20T16:58:18;7.50;;;5.32;;
8698;SDS011;4386;51.236;6.742;2022-12-20T16:59:22;6.53;;;5.60;;
8698;SDS011;4386;51.236;6.742;2022-12-20T17:00:34;9.57;;;6.10;;
8698;SDS011;4386;51.236;6.742;2022-12-20T17:01:38;9.25;;;6.18;;
8698;SDS011;4386;51.236;6.742;2022-12-20T17:02:43;11.35;;;6.25;;
8698;SDS011;4386;51.236;6.742;2022-12-20T17:03:56;9.30;;;6.13;;
8698;SDS011;4386;51.236;6.742;2022-12-20T17:04:59;7.35;;;5.68;;
8698;SDS011;4386;51.236;6.742;2022-12-20T17:06:01;6.13;;;5.22;;
8698;SDS011;4386;51.236;6.742;2022-12-20T17:07:03;10.50;;;5.75;;
8698;SDS011;4386;51.236;6.742;2022-12-20T17:08:05;10.48;;;5.18;;
8698;SDS011;4386;51.236;6.742;2022-12-20T17:09:25;14.68;;;6.40;;
8698;SDS011;4386;51.236;6.742;2022-12-20T17:10:45;10.40;;;6.10;;
8698;SDS011;4386;51.236;6.742;2022-12-20T17:11:48;15.07;;;6.07;;
8698;SDS011;4386;51.236;6.742;2022-12-20T17:12:51;10.60;;;6.15;;
8698;SDS011;4386;51.236;6.742;2022-12-20T17:13:55;10.70;;;6.40;;
8698;SDS011;4386;51.236;6.742;2022-12-20T17:14:57;8.95;;;6.07;;
8698;SDS011;4386;51.236;6.742;2022-12-20T17:15:59;13.88;;;8.02;;
8698;SDS011;4386;51.236;6.742;2022-12-20T17:17:02;12.57;;;8.23;;
8698;SDS011;4386;51.236;6.742;2022-12-20T17:18:04;11.32;;;6.28;;
8698;SDS011;4386;51.236;6.742;2022-12-20T17:19:07;10.93;;;6.78;;
8698;SDS011;4386;51.236;6.742;2022-12-20T17:20:11;16.90;;;6.18;;
8698;SDS011;4386;51.236;6.742;2022-12-20T17:21:19;8.55;;;5.55;;
8698;SDS011;4386;51.236;6.742;2022-12-20T17:22:23;12.23;;;6.25;;
8698;SDS011;4386;51.236;6.742;2022-12-20T17:23:25;12.18;;;6.50;;
8698;SDS011;4386;51.236;6.742;2022-12-20T17:24:28;9.23;;;5.82;;
8698;SDS011;4386;51.236;6.742;2022-12-20T17:25:31;15.38;;;6.00;;
8698;SDS011;4386;51.236;6.742;2022-12-20T17:26:36;7.88;;;5.07;;
8698;SDS011;4386;51.236;6.742;2022-12-20T17:27:40;8.77;;;6.35;;
8698;SDS011;4386;51.236;6.742;2022-12-20T17:28:44;9.07;;;6.82;;
8698;SDS011;4386;51.236;6.742;2022-12-20T17:29:56;14.48;;;6.30;;
8698;SDS011;4386;51.236;6.742;2022-12-20T17:31:09;12.07;;;6.25;;
8698;SDS011;4386;51.236;6.742;2022-12-20T17:32:31;8.05;;;5.07;;
8698;SDS011;4386;51.236;6.742;2022-12-20T17:33:34;11.82;;;5.88;;
8698;SDS011;4386;51.236;6.742;2022-12-20T17:34:36;10.70;;;5.50;;
8698;SDS011;4386;51.236;6.742;2022-12-20T17:35:39;6.80;;;4.85;;
8698;SDS011;4386;51.236;6.742;2022-12-20T17:36:41;12.35;;;6.70;;
8698;SDS011;4386;51.236;6.742;2022-12-20T17:37:43;12.15;;;6.35;;
8698;SDS011;4386;51.236;6.742;2022-12-20T17:38:46;14.02;;;6.63;;
8698;SDS011;4386;51.236;6.742;2022-12-20T17:39:49;14.82;;;6.38;;
8698;SDS011;4386;51.236;6.742;2022-12-20T17:40:52;13.60;;;6.45;;
8698;SDS011;4386;51.236;6.742;2022-12-20T17:41:56;10.52;;;6.68;;
8698;SDS011;4386;51.236;6.742;2022-12-20T17:42:58;15.43;;;6.63;;
8698;SDS011;4386;51.236;6.742;2022-12-20T17:44:03;7.97;;;5.90;;
8698;SDS011;4386;51.236;6.742;2022-12-20T17:45:06;10.50;;;6.47;;
8698;SDS011;4386;51.236;6.742;2022-12-20T17:46:14;15.48;;;7.10;;
8698;SDS011;4386;51.236;6.742;2022-12-20T17:47:16;9.63;;;6.72;;
8698;SDS011;4386;51.236;6.742;2022-12-20T17:48:18;9.57;;;6.70;;
8698;SDS011;4386;51.236;6.742;2022-12-20T17:49:21;12.88;;;6.70;;
8698;SDS011;4386;51.236;6.742;2022-12-20T17:50:23;11.40;;;7.53;;
8698;SDS011;4386;51.236;6.742;2022-12-20T17:51:27;12.18;;;7.38;;
8698;SDS011;4386;51.236;6.742;2022-12-20T17:52:30;9.27;;;6.35;;
8698;SDS011;4386;51.236;6.742;2022-12-20T17:53:32;9.32;;;6.93;;
8698;SDS011;4386;51.236;6.742;2022-12-20T17:54:34;11.95;;;7.32;;
8698;SDS011;4386;51.236;6.742;2022-12-20T17:55:40;12.82;;;6.47;;
8698;SDS011;4386;51.236;6.742;2022-12-20T17:56:43;10.73;;;6.72;;
8698;SDS011;4386;51.236;6.742;2022-12-20T17:57:47;20.05;;;7.05;;
8698;SDS011;4386;51.236;6.742;2022-12-20T17:58:50;15.50;;;7.35;;
8698;SDS011;4386;51.236;6.742;2022-12-20T17:59:53;10.50;;;6.68;;
8698;SDS011;4386;51.236;6.742;2022-12-20T18:00:57;9.75;;;5.82;;
8698;SDS011;4386;51.236;6.742;2022-12-20T18:02:00;13.55;;;7.43;;
8698;SDS011;4386;51.236;6.742;2022-12-20T18:03:02;9.52;;;6.88;;
8698;SDS011;4386;51.236;6.742;2022-12-20T18:04:05;6.93;;;6.15;;
8698;SDS011;4386;51.236;6.742;2022-12-20T18:05:09;8.65;;;7.05;;
8698;SDS011;4386;51.236;6.742;2022-12-20T18:06:11;9.73;;;6.90;;
8698;SDS011;4386;51.236;6.742;2022-12-20T18:07:14;13.50;;;6.88;;
8698;SDS011;4386;51.236;6.742;2022-12-20T18:08:17;11.57;;;7.25;;
8698;SDS011;4386;51.236;6.742;2022-12-20T18:09:19;12.85;;;6.53;;
8698;SDS011;4386;51.236;6.742;2022-12-20T18:10:22;9.40;;;6.70;;
8698;SDS011;4386;51.236;6.742;2022-12-20T18:11:26;10.30;;;6.63;;
8698;SDS011;4386;51.236;6.742;2022-12-20T18:12:28;10.50;;;7.45;;
8698;SDS011;4386;51.236;6.742;2022-12-20T18:13:40;14.80;;;6.30;;
8698;SDS011;4386;51.236;6.742;2022-12-20T18:14:43;8.32;;;6.40;;
8698;SDS011;4386;51.236;6.742;2022-12-20T18:15:46;14.98;;;8.00;;
8698;SDS011;4386;51.236;6.742;2022-12-20T18:16:49;14.10;;;8.15;;
8698;SDS011;4386;51.236;6.742;2022-12-20T18:17:51;9.85;;;7.25;;
8698;SDS011;4386;51.236;6.742;2022-12-20T18:18:53;14.27;;;8.63;;
8698;SDS011;4386;51.236;6.742;2022-12-20T18:19:56;14.68;;;8.20;;
8698;SDS011;4386;51.236;6.742;2022-12-20T18:21:02;11.32;;;7.07;;
8698;SDS011;4386;51.236;6.742;2022-12-20T18:22:05;8.48;;;7.60;;
8698;SDS011;4386;51.236;6.742;2022-12-20T18:23:07;13.32;;;6.38;;
8698;SDS011;4386;51.236;6.742;2022-12-20T18:24:10;13.98;;;8.02;;
8698;SDS011;4386;51.236;6.742;2022-12-20T18:25:12;9.40;;;6.50;;
8698;SDS011;4386;51.236;6.742;2022-12-20T18:26:23;13.93;;;9.30;;
8698;SDS011;4386;51.236;6.742;2022-12-20T18:27:37;18.48;;;6.90;;
8698;SDS011;4386;51.236;6.742;2022-12-20T18:28:45;8.32;;;6.47;;
8698;SDS011;4386;51.236;6.742;2022-12-20T18:29:48;13.38;;;7.75;;
8698;SDS011;4386;51.236;6.742;2022-12-20T18:30:51;11.85;;;7.00;;
8698;SDS011;4386;51.236;6.742;2022-12-20T18:31:53;11.45;;;7.07;;
8698;SDS011;4386;51.236;6.742;2022-12-20T18:32:56;19.95;;;8.45;;
8698;SDS011;4386;51.236;6.742;2022-12-20T18:33:59;9.70;;;7.07;;
8698;SDS011;4386;51.236;6.742;2022-12-20T18:35:10;13.15;;;8.20;;
8698;SDS011;4386;51.236;6.742;2022-12-20T18:36:14;16.02;;;7.43;;
8698;SDS011;4386;51.236;6.742;2022-12-20T18:37:17;10.77;;;7.97;;
8698;SDS011;4386;51.236;6.742;2022-12-20T18:38:20;10.27;;;7.70;;
8698;SDS011;4386;51.236;6.742;2022-12-20T18:39:23;12.15;;;7.50;;
8698;SDS011;4386;51.236;6.742;2022-12-20T18:40:26;12.43;;;8.02;;
8698;SDS011;4386;51.236;6.742;2022-12-20T18:41:29;14.70;;;7.28;;
8698;SDS011;4386;51.236;6.742;2022-12-20T18:42:30;14.30;;;7.97;;
8698;SDS011;4386;51.236;6.742;2022-12-20T18:43:33;13.98;;;8.68;;
8698;SDS011;4386;51.236;6.742;2022-12-20T18:44:35;11.80;;;8.15;;
8698;SDS011;4386;51.236;6.742;2022-12-20T18:45:38;19.13;;;9.45;;
8698;SDS011;4386;51.236;6.742;2022-12-20T18:46:41;14.43;;;8.30;;
8698;SDS011;4386;51.236;6.742;2022-12-20T18:47:43;12.02;;;8.75;;
8698;SDS011;4386;51.236;6.742;2022-12-20T18:48:46;12.95;;;8.10;;
8698;SDS011;4386;51.236;6.742;2022-12-20T18:49:51;16.20;;;7.63;;
8698;SDS011;4386;51.236;6.742;2022-12-20T18:50:53;15.38;;;7.65;;
8698;SDS011;4386;51.236;6.742;2022-12-20T18:51:56;14.63;;;8.15;;
8698;SDS011;4386;51.236;6.742;2022-12-20T18:53:00;11.60;;;8.50;;
8698;SDS011;4386;51.236;6.742;2022-12-20T18:54:12;10.20;;;7.68;;
8698;SDS011;4386;51.236;6.742;2022-12-20T18:55:25;13.45;;;7.30;;
8698;SDS011;4386;51.236;6.742;2022-12-20T18:56:38;11.95;;;7.00;;
8698;SDS011;4386;51.236;6.742;2022-12-20T18:57:40;10.75;;;6.57;;
8698;SDS011;4386;51.236;6.742;2022-12-20T18:58:43;11.57;;;7.18;;
8698;SDS011;4386;51.236;6.742;2022-12-20T18:59:46;12.82;;;7.25;;
8698;SDS011;4386;51.236;6.742;2022-12-20T19:00:50;13.85;;;7.40;;
8698;SDS011;4386;51.236;6.742;2022-12-20T19:01:53;17.60;;;7.35;;
8698;SDS011;4386;51.236;6.742;2022-12-20T19:02:57;10.02;;;6.85;;
8698;SDS011;4386;51.236;6.742;2022-12-20T19:04:03;8.82;;;7.25;;
8698;SDS011;4386;51.236;6.742;2022-12-20T19:05:06;10.13;;;7.15;;
8698;SDS011;4386;51.236;6.742;2022-12-20T19:06:09;10.00;;;7.03;;
8698;SDS011;4386;51.236;6.742;2022-12-20T19:07:11;11.07;;;7.53;;
8698;SDS011;4386;51.236;6.742;2022-12-20T19:08:15;12.13;;;7.65;;
8698;SDS011;4386;51.236;6.742;2022-12-20T19:09:17;10.07;;;7.50;;
8698;SDS011;4386;51.236;6.742;2022-12-20T19:10:20;8.85;;;6.97;;
8698;SDS011;4386;51.236;6.742;2022-12-20T19:11:22;12.00;;;7.90;;
8698;SDS011;4386;51.236;6.742;2022-12-20T19:12:25;9.75;;;8.30;;
8698;SDS011;4386;51.236;6.742;2022-12-20T19:13:27;10.80;;;6.80;;
8698;SDS011;4386;51.236;6.742;2022-12-20T19:14:30;8.02;;;6.70;;
8698;SDS011;4386;51.236;6.742;2022-12-20T19:15:32;9.57;;;7.25;;
8698;SDS011;4386;51.236;6.742;2022-12-20T19:16:35;13.98;;;7.68;;
8698;SDS011;4386;51.236;6.742;2022-12-20T19:17:50;17.80;;;8.82;;
8698;SDS011;4386;51.236;6.742;2022-12-20T19:19:02;13.45;;;8.73;;
8698;SDS011;4386;51.236;6.742;2022-12-20T19:20:07;12.07;;;8.25;;
8698;SDS011;4386;51.236;6.742;2022-12-20T19:21:11;12.32;;;8.45;;
8698;SDS011;4386;51.236;6.742;2022-12-20T19:22:13;15.38;;;10.38;;
8698;SDS011;4386;51.236;6.742;2022-12-20T19:23:16;14.50;;;9.57;;
8698;SDS011;4386;51.236;6.742;2022-12-20T19:24:20;13.07;;;9.75;;
8698;SDS011;4386;51.236;6.742;2022-12-20T19:25:23;20.75;;;9.43;;
8698;SDS011;4386;51.236;6.742;2022-12-20T19:26:25;14.32;;;9.75;;
8698;SDS011;4386;51.236;6.742;2022-12-20T19:27:30;14.82;;;8.65;;
8698;SDS011;4386;51.236;6.742;2022-12-20T19:28:32;13.23;;;8.98;;
8698;SDS011;4386;51.236;6.742;2022-12-20T19:29:35;14.68;;;8.70;;
8698;SDS011;4386;51.236;6.742;2022-12-20T19:30:37;11.75;;;8.38;;
8698;SDS011;4386;51.236;6.742;2022-12-20T19:31:39;10.50;;;7.35;;
8698;SDS011;4386;51.236;6.742;2022-12-20T19:32:41;13.15;;;8.48;;
8698;SDS011;4386;51.236;6.742;2022-12-20T19:33:46;19.67;;;10.07;;
8698;SDS011;4386;51.236;6.742;2022-12-20T19:34:49;15.13;;;8.45;;
8698;SDS011;4386;51.236;6.742;2022-12-20T19:35:51;12.05;;;8.35;;
8698;SDS011;4386;51.236;6.742;2022-12-20T19:36:56;13.55;;;9.23;;
8698;SDS011;4386;51.236;6.742;2022-12-20T19:37:59;16.48;;;9.45;;
8698;SDS011;4386;51.236;6.742;2022-12-20T19:39:01;17.25;;;10.43;;
8698;SDS011;4386;51.236;6.742;2022-12-20T19:40:05;16.98;;;10.15;;
8698;SDS011;4386;51.236;6.742;2022-12-20T19:41:08;17.95;;;10.40;;
8698;SDS011;4386;51.236;6.742;2022-12-20T19:42:10;14.57;;;10.25;;
8698;SDS011;4386;51.236;6.742;2022-12-20T19:43:28;20.40;;;9.60;;
8698;SDS011;4386;51.236;6.742;2022-12-20T19:44:31;19.30;;;10.60;;
8698;SDS011;4386;51.236;6.742;2022-12-20T19:45:35;19.90;;;9.30;;
8698;SDS011;4386;51.236;6.742;2022-12-20T19:46:37;14.70;;;9.10;;
8698;SDS011;4386;51.236;6.742;2022-12-20T19:47:40;15.27;;;9.57;;
8698;SDS011;4386;51.236;6.742;2022-12-20T19:48:42;11.90;;;8.77;;
8698;SDS011;4386;51.236;6.742;2022-12-20T19:49:55;14.05;;;9.27;;
8698;SDS011;4386;51.236;6.742;2022-12-20T19:51:09;17.08;;;9.55;;
8698;SDS011;4386;51.236;6.742;2022-12-20T19:52:12;14.15;;;9.32;;
8698;SDS011;4386;51.236;6.742;2022-12-20T19:53:15;15.98;;;9.90;;
8698;SDS011;4386;51.236;6.742;2022-12-20T19:54:17;17.35;;;9.60;;
8698;SDS011;4386;51.236;6.742;2022-12-20T19:55:19;16.10;;;8.70;;
8698;SDS011;4386;51.236;6.742;2022-12-20T19:56:23;14.75;;;9.20;;
8698;SDS011;4386;51.236;6.742;2022-12-20T19:57:26;15.27;;;9.43;;
8698;SDS011;4386;51.236;6.742;2022-12-20T19:58:29;12.30;;;8.50;;
8698;SDS011;4386;51.236;6.742;2022-12-20T19:59:31;11.65;;;7.88;;
8698;SDS011;4386;51.236;6.742;2022-12-20T20:00:33;10.85;;;8.23;;
8698;SDS011;4386;51.236;6.742;2022-12-20T20:01:35;15.57;;;8.57;;
8698;SDS011;4386;51.236;6.742;2022-12-20T20:02:38;14.60;;;8.85;;
8698;SDS011;4386;51.236;6.742;2022-12-20T20:03:40;16.48;;;8.05;;
8698;SDS011;4386;51.236;6.742;2022-12-20T20:04:43;10.10;;;7.60;;
8698;SDS011;4386;51.236;6.742;2022-12-20T20:05:47;10.20;;;7.50;;
8698;SDS011;4386;51.236;6.742;2022-12-20T20:06:49;9.93;;;7.93;;
8698;SDS011;4386;51.236;6.742;2022-12-20T20:08:02;13.10;;;7.53;;
8698;SDS011;4386;51.236;6.742;2022-12-20T20:09:09;14.48;;;7.65;;
8698;SDS011;4386;51.236;6.742;2022-12-20T20:10:21;11.05;;;7.22;;